createdAt,value
2017-10-02T00:01:11.274Z,21.60
2017-10-02T00:03:39.787Z,22.13
2017-10-02T00:06:07.607Z,20.45
2017-10-02T00:08:36.136Z,18.75
2017-10-02T00:11:03.891Z,20.40
2017-10-02T00:13:31.708Z,21.62
2017-10-02T00:16:00.223Z,19.98
2017-10-02T00:18:27.976Z,22.40
2017-10-02T00:20:55.792Z,21.95
2017-10-02T00:23:23.541Z,23.15
2017-10-02T00:25:51.295Z,22.98
2017-10-02T00:28:19.104Z,23.77
2017-10-02T00:30:47.623Z,23.70
2017-10-02T00:33:15.400Z,23.35
2017-10-02T00:35:43.211Z,25.25
2017-10-02T00:38:11.731Z,28.65
2017-10-02T00:40:39.490Z,28.02
2017-10-02T00:43:07.323Z,29.60
2017-10-02T00:45:35.072Z,30.98
2017-10-02T00:48:03.591Z,29.65
2017-10-02T00:50:31.401Z,28.77
2017-10-02T00:52:59.164Z,32.50
2017-10-02T00:55:26.919Z,29.65
2017-10-02T00:57:54.743Z,30.60
2017-10-02T01:00:22.494Z,34.10
2017-10-02T01:02:50.243Z,35.00
2017-10-02T01:05:18.054Z,33.53
2017-10-02T01:07:45.807Z,33.58
2017-10-02T01:10:13.606Z,35.58
2017-10-02T01:12:42.184Z,32.60
2017-10-02T01:15:10.703Z,35.30
2017-10-02T01:17:38.458Z,35.63
2017-10-02T01:20:06.271Z,33.78
2017-10-02T01:22:34.023Z,35.47
2017-10-02T01:25:01.790Z,36.45
2017-10-02T01:27:29.590Z,34.20
2017-10-02T01:29:57.339Z,35.40
2017-10-02T01:32:25.858Z,35.30
2017-10-02T01:34:53.664Z,38.20
2017-10-02T01:37:21.412Z,34.85
2017-10-02T01:39:49.166Z,35.63
2017-10-02T01:42:16.979Z,34.85
2017-10-02T01:44:44.738Z,32.95
2017-10-02T01:47:12.491Z,33.08
2017-10-02T01:49:41.070Z,33.78
2017-10-02T01:52:09.584Z,33.67
2017-10-02T01:54:37.331Z,31.98
2017-10-02T01:57:05.144Z,30.45
2017-10-02T01:59:32.896Z,30.12
2017-10-02T02:02:00.651Z,30.75
2017-10-02T02:04:28.455Z,31.65
2017-10-02T02:06:57.027Z,32.55
2017-10-02T02:09:24.786Z,31.12
2017-10-02T02:11:52.604Z,31.90
2017-10-02T02:14:20.431Z,29.33
2017-10-02T02:16:48.949Z,30.23
2017-10-02T02:19:16.759Z,31.90
2017-10-02T02:21:44.531Z,30.00
2017-10-02T02:24:13.047Z,31.37
2017-10-02T02:26:40.850Z,29.87
2017-10-02T02:29:08.608Z,32.20
2017-10-02T02:31:36.362Z,30.40
2017-10-02T02:34:04.174Z,30.75
2017-10-02T02:36:31.928Z,29.60
2017-10-02T02:39:00.448Z,28.80
2017-10-02T02:41:28.254Z,28.60
2017-10-02T02:43:56.005Z,29.25
2017-10-02T02:46:23.767Z,26.55
2017-10-02T02:48:52.361Z,27.25
2017-10-02T02:51:20.883Z,28.05
2017-10-02T02:53:48.631Z,27.27
2017-10-02T02:56:16.455Z,26.67
2017-10-02T02:58:44.218Z,25.60
2017-10-02T03:01:12.743Z,26.20
2017-10-02T03:03:40.548Z,26.52
2017-10-02T03:06:08.304Z,27.77
2017-10-02T03:08:36.065Z,27.37
2017-10-02T03:11:03.890Z,23.38
2017-10-02T03:13:31.643Z,24.63
2017-10-02T03:15:59.390Z,24.45
2017-10-02T03:18:27.222Z,26.02
2017-10-02T03:20:54.980Z,23.90
2017-10-02T03:23:22.730Z,26.40
2017-10-02T03:25:50.547Z,24.30
2017-10-02T03:28:18.308Z,24.77
2017-10-02T03:30:46.065Z,25.00
2017-10-02T03:33:13.872Z,26.12
2017-10-02T03:35:41.627Z,24.20
2017-10-02T03:38:09.376Z,23.50
2017-10-02T03:40:37.198Z,22.95
2017-10-02T03:43:05.714Z,22.52
2017-10-02T03:45:33.472Z,24.45
2017-10-02T03:48:01.287Z,23.48
2017-10-02T03:50:29.038Z,23.62
2017-10-02T03:52:56.832Z,23.02
2017-10-02T03:55:25.436Z,23.25
2017-10-02T03:57:53.187Z,24.05
2017-10-02T04:00:20.978Z,24.12
2017-10-02T04:02:48.783Z,23.30
2017-10-02T04:05:16.532Z,24.15
2017-10-02T04:07:44.295Z,24.73
2017-10-02T04:10:12.245Z,22.30
2017-10-02T04:12:40.768Z,22.05
2017-10-02T04:15:09.291Z,25.62
2017-10-02T04:17:37.103Z,23.85
2017-10-02T04:20:05.632Z,24.90
2017-10-02T04:22:33.382Z,24.17
2017-10-02T04:25:01.195Z,26.75
2017-10-02T04:27:28.952Z,25.75
2017-10-02T04:29:56.710Z,23.80
2017-10-02T04:32:24.527Z,23.62
2017-10-02T04:34:52.271Z,24.50
2017-10-02T04:37:20.026Z,24.85
2017-10-02T04:39:48.600Z,25.80
2017-10-02T04:42:16.360Z,25.80
2017-10-02T04:44:44.882Z,25.58
2017-10-02T04:47:12.691Z,23.25
2017-10-02T04:49:40.445Z,23.83
2017-10-02T04:52:08.198Z,25.83
2017-10-02T04:54:36.018Z,24.75
2017-10-02T04:57:03.780Z,24.33
2017-10-02T04:59:31.530Z,24.33
2017-10-02T05:01:59.339Z,24.67
2017-10-02T05:04:27.091Z,22.27
2017-10-02T05:06:54.843Z,23.92
2017-10-02T05:09:22.656Z,23.20
2017-10-02T05:11:51.181Z,25.75
2017-10-02T05:14:18.944Z,23.12
2017-10-02T05:16:46.784Z,23.33
2017-10-02T05:19:14.536Z,23.83
2017-10-02T05:21:42.292Z,23.98
2017-10-02T05:24:10.867Z,23.20
2017-10-02T05:26:39.392Z,22.67
2017-10-02T05:29:07.149Z,28.08
2017-10-02T05:31:34.956Z,23.55
2017-10-02T05:34:02.711Z,24.12
2017-10-02T05:36:30.462Z,22.65
2017-10-02T05:38:58.272Z,24.42
2017-10-02T05:41:26.031Z,24.02
2017-10-02T05:43:53.779Z,22.35
2017-10-02T05:46:22.358Z,21.95
2017-10-02T05:48:50.116Z,21.70
2017-10-02T05:51:18.646Z,21.25
2017-10-02T05:53:46.454Z,21.87
2017-10-02T05:56:14.969Z,20.70
2017-10-02T05:58:42.725Z,20.08
2017-10-02T06:01:10.609Z,22.27
2017-10-02T06:03:38.363Z,22.98
2017-10-02T06:06:06.119Z,18.23
2017-10-02T06:08:33.971Z,16.65
2017-10-02T06:11:01.728Z,17.45
2017-10-02T06:13:29.487Z,17.92
2017-10-02T06:15:57.379Z,16.45
2017-10-02T06:18:25.168Z,15.25
2017-10-02T06:20:52.942Z,14.70
2017-10-02T06:23:20.756Z,15.70
2017-10-02T06:25:48.507Z,15.88
2017-10-02T06:28:16.262Z,14.85
2017-10-02T06:30:44.084Z,15.52
2017-10-02T06:33:11.843Z,13.85
2017-10-02T06:35:39.606Z,13.70
2017-10-02T06:38:07.416Z,15.73
2017-10-02T06:40:35.171Z,15.52
2017-10-02T06:43:03.699Z,16.50
2017-10-02T06:45:31.514Z,14.98
2017-10-02T06:47:59.278Z,14.93
2017-10-02T06:50:27.035Z,15.52
2017-10-02T06:52:54.852Z,16.55
2017-10-02T06:55:22.619Z,14.80
2017-10-02T06:57:50.432Z,15.52
2017-10-02T07:00:18.249Z,15.68
2017-10-02T07:02:46.775Z,14.45
2017-10-02T07:05:14.543Z,16.02
2017-10-02T07:07:42.362Z,14.93
2017-10-02T07:10:10.209Z,14.90
2017-10-02T07:12:39.272Z,13.88
2017-10-02T07:15:07.111Z,11.88
2017-10-02T07:17:34.982Z,13.90
2017-10-02T07:20:03.115Z,14.20
2017-10-02T07:22:30.942Z,13.65
2017-10-02T07:24:58.872Z,15.32
2017-10-02T07:27:26.760Z,13.32
2017-10-02T07:29:54.817Z,14.07
2017-10-02T07:32:22.588Z,12.40
2017-10-02T07:34:50.554Z,11.82
2017-10-02T07:37:18.406Z,14.23
2017-10-02T07:39:46.160Z,13.13
2017-10-02T07:42:13.938Z,14.87
2017-10-02T07:44:41.761Z,11.98
2017-10-02T07:47:09.520Z,13.18
2017-10-02T07:49:37.283Z,11.95
2017-10-02T07:52:05.105Z,11.18
2017-10-02T07:54:32.860Z,11.73
2017-10-02T07:57:00.759Z,10.90
2017-10-02T07:59:28.648Z,11.18
2017-10-02T08:01:57.179Z,10.75
2017-10-02T08:04:24.935Z,11.27
2017-10-02T08:06:52.751Z,10.90
2017-10-02T08:09:21.293Z,10.40
2017-10-02T08:11:49.160Z,10.13
2017-10-02T08:14:16.986Z,10.13
2017-10-02T08:16:44.739Z,9.43
2017-10-02T08:19:12.490Z,10.52
2017-10-02T08:21:41.066Z,10.32
2017-10-02T08:24:09.592Z,10.48
2017-10-02T08:26:37.348Z,10.77
2017-10-02T08:29:05.157Z,9.63
2017-10-02T08:31:32.913Z,10.90
2017-10-02T08:34:00.672Z,10.07
2017-10-02T08:36:28.485Z,9.90
2017-10-02T08:38:56.267Z,10.90
2017-10-02T08:41:24.027Z,10.10
2017-10-02T08:43:51.845Z,10.05
2017-10-02T08:46:20.370Z,10.00
2017-10-02T08:48:48.126Z,11.10
2017-10-02T08:51:15.936Z,10.35
2017-10-02T08:53:44.797Z,10.65
2017-10-02T08:56:12.552Z,10.82
2017-10-02T08:58:40.534Z,10.23
2017-10-02T09:01:08.291Z,10.18
2017-10-02T09:03:36.043Z,9.32
2017-10-02T09:06:03.851Z,10.90
2017-10-02T09:08:32.402Z,9.88
2017-10-02T09:11:00.181Z,9.60
2017-10-02T09:13:28.042Z,10.63
2017-10-02T09:15:56.569Z,10.27
2017-10-02T09:18:24.326Z,10.40
2017-10-02T09:20:52.136Z,9.00
2017-10-02T09:23:19.886Z,9.45
2017-10-02T09:25:47.672Z,10.32
2017-10-02T09:28:16.256Z,10.55
2017-10-02T09:30:44.776Z,9.68
2017-10-02T09:33:12.541Z,9.98
2017-10-02T09:35:40.387Z,9.60
2017-10-02T09:38:08.183Z,10.90
2017-10-02T09:40:35.948Z,10.10
2017-10-02T09:43:04.123Z,8.80
2017-10-02T09:45:31.887Z,11.00
2017-10-02T09:48:00.421Z,9.02
2017-10-02T09:50:28.260Z,9.73
2017-10-02T09:52:56.781Z,9.32
2017-10-02T09:55:24.542Z,9.52
2017-10-02T09:57:52.351Z,9.00
2017-10-02T10:00:20.107Z,9.30
2017-10-02T10:02:47.865Z,9.93
2017-10-02T10:05:15.683Z,10.05
2017-10-02T10:07:43.428Z,9.70
2017-10-02T10:10:11.174Z,8.85
2017-10-02T10:12:39.823Z,9.48
2017-10-02T10:15:07.605Z,10.07
2017-10-02T10:17:36.134Z,10.65
2017-10-02T10:20:03.941Z,9.15
2017-10-02T10:22:31.695Z,9.50
2017-10-02T10:24:59.451Z,11.00
2017-10-02T10:27:27.291Z,9.85
2017-10-02T10:29:55.040Z,8.95
2017-10-02T10:32:22.791Z,9.70
2017-10-02T10:34:50.596Z,9.10
2017-10-02T10:37:18.387Z,9.65
2017-10-02T10:39:46.905Z,9.13
2017-10-02T10:42:14.724Z,9.60
2017-10-02T10:44:43.248Z,9.20
2017-10-02T10:47:11.014Z,8.25
2017-10-02T10:49:38.829Z,8.80
2017-10-02T10:52:06.582Z,8.55
2017-10-02T10:54:34.332Z,8.70
2017-10-02T10:57:02.150Z,8.60
2017-10-02T10:59:29.906Z,9.88
2017-10-02T11:01:57.668Z,8.95
2017-10-02T11:04:25.480Z,6.97
2017-10-02T11:06:53.230Z,7.90
2017-10-02T11:09:20.984Z,7.78
2017-10-02T11:11:48.802Z,8.20
2017-10-02T11:14:17.318Z,7.22
2017-10-02T11:16:45.075Z,8.82
2017-10-02T11:19:12.935Z,8.38
2017-10-02T11:21:40.699Z,8.15
2017-10-02T11:24:08.450Z,7.37
2017-10-02T11:26:36.260Z,8.02
2017-10-02T11:29:04.013Z,8.25
2017-10-02T11:31:31.769Z,8.77
2017-10-02T11:34:00.363Z,7.97
2017-10-02T11:36:28.116Z,8.15
2017-10-02T11:38:56.636Z,7.90
2017-10-02T11:41:25.203Z,8.70
2017-10-02T11:43:52.959Z,7.70
2017-10-02T11:46:20.755Z,8.70
2017-10-02T11:48:48.568Z,7.78
2017-10-02T11:51:16.325Z,7.70
2017-10-02T11:53:44.075Z,8.32
2017-10-02T11:56:12.648Z,7.87
2017-10-02T11:58:40.412Z,8.18
2017-10-02T12:01:08.166Z,8.80
2017-10-02T12:03:35.976Z,8.48
2017-10-02T12:06:03.732Z,9.05
2017-10-02T12:08:31.486Z,9.60
2017-10-02T12:10:59.300Z,10.85
2017-10-02T12:13:27.060Z,8.30
2017-10-02T12:15:54.823Z,9.50
2017-10-02T12:18:22.640Z,8.70
2017-10-02T12:20:50.399Z,9.05
2017-10-02T12:23:18.150Z,7.62
2017-10-02T12:25:45.955Z,8.30
2017-10-02T12:28:14.503Z,8.10
2017-10-02T12:30:42.259Z,9.38
2017-10-02T12:33:10.076Z,8.60
2017-10-02T12:35:37.837Z,8.95
2017-10-02T12:38:05.606Z,8.55
2017-10-02T12:40:33.407Z,7.70
2017-10-02T12:43:01.187Z,7.32
2017-10-02T12:45:29.736Z,8.13
2017-10-02T12:47:57.547Z,9.13
2017-10-02T12:50:26.071Z,8.80
2017-10-02T12:52:53.831Z,7.90
2017-10-02T12:55:21.642Z,8.18
2017-10-02T12:57:50.153Z,7.72
2017-10-02T13:00:17.908Z,7.53
2017-10-02T13:02:45.718Z,8.77
2017-10-02T13:05:13.473Z,8.30
2017-10-02T13:07:41.232Z,8.40
2017-10-02T13:10:09.042Z,8.35
2017-10-02T13:12:36.800Z,7.87
2017-10-02T13:15:04.564Z,8.43
2017-10-02T13:17:33.139Z,8.07
2017-10-02T13:20:01.663Z,8.75
2017-10-02T13:22:29.423Z,8.90
2017-10-02T13:24:57.239Z,8.15
2017-10-02T13:27:25.803Z,9.07
2017-10-02T13:29:53.552Z,8.95
2017-10-02T13:32:21.358Z,8.25
2017-10-02T13:34:49.119Z,9.35
2017-10-02T13:37:16.875Z,8.43
2017-10-02T13:39:45.451Z,8.52
2017-10-02T13:42:13.973Z,8.63
2017-10-02T13:44:41.744Z,9.15
2017-10-02T13:47:09.570Z,8.80
2017-10-02T13:49:37.320Z,9.20
2017-10-02T13:52:05.836Z,6.95
2017-10-02T13:54:33.655Z,7.15
2017-10-02T13:57:02.210Z,7.35
2017-10-02T13:59:29.963Z,8.02
2017-10-02T14:01:58.532Z,7.47
2017-10-02T14:04:26.311Z,7.35
2017-10-02T14:06:54.083Z,8.05
2017-10-02T14:09:21.892Z,8.55
2017-10-02T14:11:49.655Z,8.80
2017-10-02T14:14:17.424Z,8.45
2017-10-02T14:16:45.232Z,7.82
2017-10-02T14:19:12.995Z,9.10
2017-10-02T14:21:40.759Z,8.05
2017-10-02T14:24:08.571Z,8.60
2017-10-02T14:26:36.320Z,8.68
2017-10-02T14:29:04.171Z,9.70
2017-10-02T14:31:32.027Z,8.27
2017-10-02T14:34:00.549Z,8.27
2017-10-02T14:36:28.303Z,9.70
2017-10-02T14:38:56.112Z,7.80
2017-10-02T14:41:23.868Z,8.35
2017-10-02T14:43:51.975Z,7.90
2017-10-02T14:46:20.591Z,7.85
2017-10-02T14:48:50.901Z,8.65
2017-10-02T14:51:18.690Z,8.20
2017-10-02T14:53:46.494Z,7.90
2017-10-02T14:56:14.334Z,7.60
2017-10-02T14:58:42.093Z,9.30
2017-10-02T15:01:09.921Z,8.45
2017-10-02T15:03:37.682Z,8.15
2017-10-02T15:06:05.439Z,8.15
2017-10-02T15:08:33.246Z,8.18
2017-10-02T15:11:01.004Z,9.13
2017-10-02T15:13:28.758Z,9.20
2017-10-02T15:15:56.563Z,8.05
2017-10-02T15:18:24.374Z,11.30
2017-10-02T15:20:52.127Z,10.02
2017-10-02T15:23:19.966Z,10.43
2017-10-02T15:25:47.726Z,12.60
2017-10-02T15:28:15.483Z,11.32
2017-10-02T15:30:43.304Z,10.45
2017-10-02T15:33:11.072Z,15.82
2017-10-02T15:35:39.601Z,13.02
2017-10-02T15:38:07.420Z,9.18
2017-10-02T15:40:35.943Z,10.18
2017-10-02T15:43:03.707Z,9.95
2017-10-02T15:45:31.521Z,8.82
2017-10-02T15:48:00.045Z,11.40
2017-10-02T15:50:27.804Z,10.63
2017-10-02T15:52:55.623Z,12.23
2017-10-02T15:55:24.152Z,9.95
2017-10-02T15:57:51.914Z,10.15
2017-10-02T16:00:19.732Z,9.23
2017-10-02T16:02:48.266Z,8.57
2017-10-02T16:05:16.018Z,8.45
2017-10-02T16:07:43.868Z,9.30
2017-10-02T16:10:11.640Z,8.00
2017-10-02T16:12:39.391Z,9.70
2017-10-02T16:15:07.262Z,10.35
2017-10-02T16:17:35.022Z,10.63
2017-10-02T16:20:02.780Z,10.98
2017-10-02T16:22:30.624Z,10.73
2017-10-02T16:24:58.387Z,10.13
2017-10-02T16:27:26.167Z,12.68
2017-10-02T16:29:53.980Z,12.32
2017-10-02T16:32:21.749Z,11.05
2017-10-02T16:34:49.505Z,10.25
2017-10-02T16:37:17.315Z,12.57
2017-10-02T16:39:45.076Z,10.40
2017-10-02T16:42:12.841Z,11.18
2017-10-02T16:44:40.665Z,9.18
2017-10-02T16:47:09.186Z,11.15
2017-10-02T16:49:36.939Z,9.85
2017-10-02T16:52:04.747Z,8.95
2017-10-02T16:54:32.522Z,9.25
2017-10-02T16:57:00.275Z,9.55
2017-10-02T16:59:28.082Z,9.02
2017-10-02T17:01:55.830Z,9.57
2017-10-02T17:04:23.597Z,10.40
2017-10-02T17:06:51.440Z,12.63
2017-10-02T17:09:19.962Z,12.07
2017-10-02T17:11:47.720Z,13.25
2017-10-02T17:14:15.584Z,12.82
2017-10-02T17:16:43.347Z,13.55
2017-10-02T17:19:11.109Z,10.27
2017-10-02T17:21:38.923Z,10.57
2017-10-02T17:24:06.698Z,10.27
2017-10-02T17:26:34.467Z,20.88
2017-10-02T17:29:03.044Z,9.93
2017-10-02T17:31:31.564Z,10.90
2017-10-02T17:33:59.352Z,10.13
2017-10-02T17:36:27.166Z,10.10
2017-10-02T17:38:54.928Z,12.00
2017-10-02T17:41:22.712Z,10.18
2017-10-02T17:43:50.555Z,12.95
2017-10-02T17:46:18.318Z,13.07
2017-10-02T17:48:46.101Z,10.95
2017-10-02T17:51:15.172Z,11.45
2017-10-02T17:53:43.096Z,10.13
2017-10-02T17:56:10.863Z,11.45
2017-10-02T17:58:38.835Z,11.60
2017-10-02T18:01:07.400Z,11.10
2017-10-02T18:03:35.201Z,12.60
2017-10-02T18:06:03.060Z,10.38
2017-10-02T18:08:30.839Z,10.85
2017-10-02T18:11:06.082Z,12.18
2017-10-02T18:13:42.278Z,10.15
2017-10-02T18:16:17.467Z,10.88
2017-10-02T18:18:50.191Z,10.93
2017-10-02T18:21:27.701Z,10.40
2017-10-02T18:24:03.641Z,10.15
2017-10-02T18:26:39.909Z,12.65
2017-10-02T18:29:13.085Z,10.73
2017-10-02T18:31:40.894Z,9.90
2017-10-02T18:34:09.221Z,10.25
2017-10-02T18:36:36.997Z,10.55
2017-10-02T18:39:04.903Z,10.70
2017-10-02T18:41:32.712Z,11.07
2017-10-02T18:44:00.497Z,10.23
2017-10-02T18:46:28.411Z,10.45
2017-10-02T18:48:56.199Z,17.08
2017-10-02T18:51:24.045Z,39.90
2017-10-02T18:53:51.917Z,35.80
2017-10-02T18:56:19.680Z,22.90
2017-10-02T18:58:47.631Z,12.65
2017-10-02T19:01:15.460Z,11.48
2017-10-02T19:03:43.286Z,12.00
2017-10-02T19:06:11.863Z,11.40
2017-10-02T19:08:39.696Z,11.07
2017-10-02T19:11:07.471Z,11.15
2017-10-02T19:13:35.225Z,10.60
2017-10-02T19:16:03.041Z,11.45
2017-10-02T19:18:31.585Z,9.70
2017-10-02T19:21:00.391Z,9.93
2017-10-02T19:23:28.236Z,9.70
2017-10-02T19:25:55.995Z,10.55
2017-10-02T19:28:23.757Z,10.45
2017-10-02T19:30:51.583Z,11.25
2017-10-02T19:33:19.336Z,11.40
2017-10-02T19:35:47.099Z,11.57
2017-10-02T19:38:14.941Z,11.63
2017-10-02T19:40:43.459Z,12.00
2017-10-02T19:43:11.324Z,12.90
2017-10-02T19:45:39.144Z,11.30
2017-10-02T19:48:06.977Z,12.73
2017-10-02T19:50:34.738Z,10.85
2017-10-02T19:53:02.559Z,14.25
2017-10-02T19:55:30.352Z,12.10
2017-10-02T19:57:58.116Z,11.20
2017-10-02T20:00:25.944Z,12.23
2017-10-02T20:02:53.706Z,13.38
2017-10-02T20:05:21.463Z,12.20
2017-10-02T20:07:49.287Z,11.80
2017-10-02T20:10:17.055Z,11.75
2017-10-02T20:12:44.817Z,13.35
2017-10-02T20:15:12.639Z,11.98
2017-10-02T20:17:40.422Z,13.98
2017-10-02T20:20:08.199Z,14.43
2017-10-02T20:22:36.024Z,12.23
2017-10-02T20:25:03.787Z,13.57
2017-10-02T20:27:31.547Z,12.77
2017-10-02T20:29:59.397Z,14.15
2017-10-02T20:32:27.196Z,13.75
2017-10-02T20:34:54.953Z,15.05
2017-10-02T20:37:22.779Z,15.27
2017-10-02T20:39:50.539Z,14.85
2017-10-02T20:42:18.294Z,16.23
2017-10-02T20:44:46.116Z,15.52
2017-10-02T20:47:13.876Z,16.17
2017-10-02T20:49:41.635Z,15.80
2017-10-02T20:52:09.447Z,14.98
2017-10-02T20:54:37.204Z,15.65
2017-10-02T20:57:04.962Z,15.27
2017-10-02T20:59:32.773Z,16.35
2017-10-02T21:02:00.543Z,16.02
2017-10-02T21:04:28.306Z,15.93
2017-10-02T21:06:56.130Z,17.40
2017-10-02T21:09:23.883Z,17.50
2017-10-02T21:11:51.635Z,15.30
2017-10-02T21:14:20.209Z,16.05
2017-10-02T21:16:48.760Z,16.60
2017-10-02T21:19:16.531Z,17.85
2017-10-02T21:21:44.407Z,17.75
2017-10-02T21:24:12.935Z,16.05
2017-10-02T21:26:40.692Z,16.50
2017-10-02T21:29:08.508Z,17.10
2017-10-02T21:31:37.040Z,17.45
2017-10-02T21:34:04.795Z,19.10
2017-10-02T21:36:32.603Z,19.33
2017-10-02T21:39:00.360Z,16.45
2017-10-02T21:41:28.110Z,16.75
2017-10-02T21:43:55.921Z,17.40
2017-10-02T21:46:23.682Z,16.70
2017-10-02T21:48:51.448Z,18.08
2017-10-02T21:51:19.258Z,17.30
2017-10-02T21:53:47.047Z,18.33
2017-10-02T21:56:15.599Z,18.75
2017-10-02T21:58:43.417Z,19.90
2017-10-02T22:01:11.180Z,19.02
2017-10-02T22:03:38.957Z,18.08
2017-10-02T22:06:06.765Z,17.25
2017-10-02T22:08:34.527Z,18.77
2017-10-02T22:11:02.326Z,17.58
2017-10-02T22:13:30.135Z,18.40
2017-10-02T22:15:57.892Z,19.27
2017-10-02T22:18:25.653Z,18.60
2017-10-02T22:20:53.472Z,18.70
2017-10-02T22:23:21.227Z,19.95
2017-10-02T22:25:48.989Z,19.60
2017-10-02T22:28:16.812Z,18.10
2017-10-02T22:30:44.568Z,20.05
2017-10-02T22:33:12.324Z,18.98
2017-10-02T22:35:40.138Z,20.30
2017-10-02T22:38:07.899Z,20.52
2017-10-02T22:40:35.651Z,19.52
2017-10-02T22:43:04.235Z,19.08
2017-10-02T22:45:32.758Z,20.15
2017-10-02T22:48:00.511Z,17.98
2017-10-02T22:50:28.324Z,18.65
2017-10-02T22:52:56.879Z,19.15
2017-10-02T22:55:24.635Z,18.50
2017-10-02T22:57:52.448Z,19.12
2017-10-02T23:00:20.970Z,18.48
2017-10-02T23:02:48.732Z,19.42
2017-10-02T23:05:16.552Z,19.20
2017-10-02T23:07:44.329Z,17.67
2017-10-02T23:10:12.085Z,19.75
2017-10-02T23:12:39.908Z,18.75
2017-10-02T23:15:07.668Z,19.12
2017-10-02T23:17:35.432Z,17.40
2017-10-02T23:20:03.262Z,17.55
2017-10-02T23:22:31.032Z,18.00
2017-10-02T23:24:58.799Z,17.50
2017-10-02T23:27:26.621Z,19.02
2017-10-02T23:29:54.375Z,18.17
2017-10-02T23:32:22.164Z,19.05
2017-10-02T23:34:49.981Z,17.37
2017-10-02T23:37:18.506Z,19.00
2017-10-02T23:39:46.279Z,18.67
2017-10-02T23:42:14.103Z,18.08
2017-10-02T23:44:41.861Z,20.20
2017-10-02T23:47:09.639Z,18.45
2017-10-02T23:49:37.493Z,18.67
2017-10-02T23:52:05.244Z,21.30
2017-10-02T23:54:33.764Z,18.90
2017-10-02T23:57:01.582Z,18.52
2017-10-02T23:59:30.111Z,19.70
